createdAt,value
2019-05-20T00:01:22.301Z,42.53
2019-05-20T00:03:53.874Z,42.10
2019-05-20T00:06:25.315Z,41.98
2019-05-20T00:08:57.034Z,42.04
2019-05-20T00:11:28.656Z,41.93
2019-05-20T00:14:00.224Z,42.31
2019-05-20T00:16:32.474Z,42.31
2019-05-20T00:19:04.369Z,41.47
2019-05-20T00:21:36.436Z,41.00
2019-05-20T00:24:08.214Z,40.74
2019-05-20T00:26:40.064Z,41.35
2019-05-20T00:29:11.753Z,41.41
2019-05-20T00:31:43.369Z,41.10
2019-05-20T00:34:14.981Z,40.71
2019-05-20T00:36:46.896Z,40.69
2019-05-20T00:39:21.787Z,41.14
2019-05-20T00:41:53.493Z,40.37
2019-05-20T00:44:25.222Z,39.95
2019-05-20T00:46:56.908Z,40.12
2019-05-20T00:49:30.002Z,39.92
2019-05-20T00:52:02.384Z,38.46
2019-05-20T00:54:34.210Z,38.46
2019-05-20T00:57:05.977Z,39.18
2019-05-20T00:59:37.665Z,39.40
2019-05-20T01:02:09.602Z,39.26
2019-05-20T01:04:41.384Z,38.06
2019-05-20T01:07:15.817Z,36.47
2019-05-20T01:09:47.693Z,36.55
2019-05-20T01:12:19.415Z,36.55
2019-05-20T01:14:51.060Z,35.25
2019-05-20T01:17:22.510Z,34.73
2019-05-20T01:19:54.465Z,34.08
2019-05-20T01:22:26.494Z,34.29
2019-05-20T01:24:57.986Z,34.29
2019-05-20T01:27:29.554Z,32.86
2019-05-20T01:30:01.255Z,32.71
2019-05-20T01:32:33.502Z,33.12
2019-05-20T01:35:05.192Z,33.18
2019-05-20T01:37:36.763Z,33.14
2019-05-20T01:40:08.515Z,32.45
2019-05-20T01:42:40.183Z,31.94
2019-05-20T01:45:12.064Z,31.94
2019-05-20T01:47:43.853Z,32.66
2019-05-20T01:50:15.729Z,32.50
2019-05-20T01:52:47.686Z,31.17
2019-05-20T01:55:19.426Z,31.14
2019-05-20T01:57:51.295Z,29.92
2019-05-20T02:00:24.492Z,30.86
2019-05-20T02:02:56.236Z,30.86
2019-05-20T02:05:27.806Z,29.97
2019-05-20T02:07:59.507Z,29.21
2019-05-20T02:10:31.115Z,28.58
2019-05-20T02:13:02.758Z,28.47
2019-05-20T02:15:53.405Z,29.25
2019-05-20T02:18:25.025Z,29.25
2019-05-20T02:20:56.434Z,29.03
2019-05-20T02:23:28.226Z,28.23
2019-05-20T02:25:59.963Z,28.23
2019-05-20T02:28:31.425Z,29.24
2019-05-20T02:31:02.845Z,28.45
2019-05-20T02:33:49.992Z,28.45
2019-05-20T02:36:07.880Z,28.28
2019-05-20T02:38:39.910Z,28.28
2019-05-20T02:41:11.721Z,28.76
2019-05-20T02:43:43.855Z,27.68
2019-05-20T02:46:15.562Z,27.16
2019-05-20T02:48:47.349Z,27.62
2019-05-20T02:51:20.610Z,28.16
2019-05-20T02:53:52.549Z,27.27
2019-05-20T02:56:24.232Z,27.04
2019-05-20T02:58:55.871Z,26.94
2019-05-20T03:01:27.489Z,26.94
2019-05-20T03:04:10.772Z,27.03
2019-05-20T03:06:32.417Z,26.61
2019-05-20T03:09:04.623Z,26.23
2019-05-20T03:11:37.108Z,25.91
2019-05-20T03:14:08.578Z,25.54
2019-05-20T03:16:39.970Z,25.69
2019-05-20T03:19:11.682Z,25.47
2019-05-20T03:21:43.233Z,25.47
2019-05-20T03:24:14.783Z,25.57
2019-05-20T03:26:46.517Z,25.57
2019-05-20T03:29:18.203Z,25.73
2019-05-20T03:31:49.831Z,25.44
2019-05-20T03:34:44.191Z,25.00
2019-05-20T03:36:54.407Z,25.16
2019-05-20T03:39:25.954Z,24.97
2019-05-20T03:41:57.567Z,24.72
2019-05-20T03:44:29.267Z,25.02
2019-05-20T03:47:00.773Z,24.56
2019-05-20T03:49:33.249Z,24.76
2019-05-20T03:52:05.633Z,24.68
2019-05-20T03:54:37.881Z,24.39
2019-05-20T03:57:09.571Z,24.39
2019-05-20T03:59:41.571Z,25.11
2019-05-20T04:02:13.182Z,25.11
2019-05-20T04:05:00.802Z,24.68
2019-05-20T04:07:18.531Z,24.29
2019-05-20T04:09:50.256Z,24.46
2019-05-20T04:12:21.987Z,24.03
2019-05-20T04:14:53.916Z,24.03
2019-05-20T04:17:25.567Z,23.99
2019-05-20T04:19:58.693Z,23.16
2019-05-20T04:22:30.351Z,24.42
2019-05-20T04:25:02.563Z,24.42
2019-05-20T04:27:34.269Z,23.51
2019-05-20T04:30:06.070Z,23.51
2019-05-20T04:32:37.619Z,23.43
2019-05-20T04:35:21.699Z,23.51
2019-05-20T04:37:42.601Z,23.48
2019-05-20T04:40:15.723Z,23.86
2019-05-20T04:42:47.621Z,23.47
2019-05-20T04:45:19.829Z,23.47
2019-05-20T04:47:51.552Z,23.73
2019-05-20T04:50:23.258Z,23.73
2019-05-20T04:52:54.897Z,23.26
2019-05-20T04:55:27.196Z,23.02
2019-05-20T04:57:58.872Z,23.41
2019-05-20T05:01:01.135Z,23.41
2019-05-20T05:03:32.932Z,23.10
2019-05-20T05:06:04.701Z,22.94
2019-05-20T05:08:36.304Z,22.83
2019-05-20T05:11:07.865Z,22.81
2019-05-20T05:13:39.554Z,22.85
2019-05-20T05:16:13.834Z,23.27
2019-05-20T05:18:45.252Z,23.70
2019-05-20T05:21:17.009Z,23.32
2019-05-20T05:23:58.854Z,22.46
2019-05-20T05:26:22.264Z,22.46
2019-05-20T05:28:53.750Z,21.86
2019-05-20T05:31:24.987Z,21.45
2019-05-20T05:33:56.354Z,21.76
2019-05-20T05:36:27.915Z,21.76
2019-05-20T05:38:59.401Z,21.42
2019-05-20T05:41:31.055Z,21.43
2019-05-20T05:44:02.772Z,20.62
2019-05-20T05:46:34.323Z,21.44
2019-05-20T05:49:06.367Z,21.84
2019-05-20T05:51:37.834Z,21.62
2019-05-20T05:54:09.916Z,21.99
2019-05-20T05:56:41.731Z,22.10
2019-05-20T05:59:13.562Z,21.57
2019-05-20T06:01:45.307Z,20.92
2019-05-20T06:04:17.006Z,20.87
2019-05-20T06:06:52.597Z,20.77
2019-05-20T06:09:24.488Z,20.77
2019-05-20T06:11:55.951Z,21.20
2019-05-20T06:14:27.635Z,21.22
2019-05-20T06:16:59.403Z,21.75
2019-05-20T06:19:30.846Z,21.75
2019-05-20T06:22:04.779Z,21.45
2019-05-20T06:24:36.240Z,21.51
2019-05-20T06:27:07.985Z,20.83
2019-05-20T06:29:39.632Z,20.82
2019-05-20T06:32:11.498Z,20.82
2019-05-20T06:34:43.263Z,21.39
2019-05-20T06:37:17.277Z,21.39
2019-05-20T06:39:51.193Z,21.48
2019-05-20T06:42:22.967Z,20.60
2019-05-20T06:44:57.283Z,20.95
2019-05-20T06:47:29.471Z,20.43
2019-05-20T06:50:01.313Z,20.24
2019-05-20T06:52:36.038Z,19.92
2019-05-20T06:55:07.393Z,19.92
2019-05-20T06:57:39.495Z,20.46
2019-05-20T07:00:13.668Z,21.45
2019-05-20T07:02:45.509Z,20.33
2019-05-20T07:05:17.652Z,20.85
2019-05-20T07:07:49.843Z,20.78
2019-05-20T07:10:21.572Z,20.36
2019-05-20T07:12:53.287Z,20.44
2019-05-20T07:15:26.201Z,20.59
2019-05-20T07:17:58.286Z,20.16
2019-05-20T07:20:30.103Z,20.16
2019-05-20T07:23:01.603Z,20.33
2019-05-20T07:25:33.568Z,20.33
2019-05-20T07:28:05.622Z,20.07
2019-05-20T07:30:37.328Z,23.57
2019-05-20T07:33:10.400Z,20.41
2019-05-20T07:35:42.378Z,20.41
2019-05-20T07:38:18.555Z,19.89
2019-05-20T07:40:50.139Z,20.36
2019-05-20T07:43:22.043Z,23.57
2019-05-20T07:45:54.583Z,22.16
2019-05-20T07:48:26.981Z,22.16
2019-05-20T07:50:59.673Z,19.83
2019-05-20T07:53:32.151Z,20.19
2019-05-20T07:56:17.489Z,20.05
2019-05-20T07:58:53.186Z,20.05
2019-05-20T08:01:25.433Z,20.36
2019-05-20T08:03:56.974Z,19.74
2019-05-20T08:06:28.813Z,20.26
2019-05-20T08:09:00.973Z,20.26
2019-05-20T08:11:34.316Z,19.97
2019-05-20T08:14:06.043Z,20.91
2019-05-20T08:16:38.158Z,20.91
2019-05-20T08:19:10.236Z,21.37
2019-05-20T08:21:43.171Z,20.78
2019-05-20T08:24:14.825Z,20.78
2019-05-20T08:26:46.754Z,20.47
2019-05-20T08:29:19.004Z,19.60
2019-05-20T08:32:01.330Z,19.58
2019-05-20T08:34:32.975Z,19.77
2019-05-20T08:37:04.770Z,19.43
2019-05-20T08:39:37.593Z,19.67
2019-05-20T08:42:09.274Z,19.67
2019-05-20T08:44:41.356Z,20.05
2019-05-20T08:47:13.172Z,20.08
2019-05-20T08:49:45.235Z,19.45
2019-05-20T08:52:16.801Z,19.41
2019-05-20T08:54:48.832Z,19.06
2019-05-20T08:57:20.530Z,19.45
2019-05-20T08:59:52.820Z,19.05
2019-05-20T09:02:24.595Z,19.04
2019-05-20T09:04:56.196Z,18.89
2019-05-20T09:07:27.846Z,18.89
2019-05-20T09:09:59.494Z,18.77
2019-05-20T09:12:30.943Z,18.84
2019-05-20T09:15:02.629Z,18.65
2019-05-20T09:17:39.080Z,18.65
2019-05-20T09:20:12.084Z,18.36
2019-05-20T09:22:43.858Z,18.38
2019-05-20T09:25:15.674Z,17.50
2019-05-20T09:27:47.286Z,17.50
2019-05-20T09:30:18.988Z,17.29
2019-05-20T09:32:51.091Z,18.45
2019-05-20T09:35:23.163Z,18.18
2019-05-20T09:37:54.888Z,18.18
2019-05-20T09:41:11.557Z,18.56
2019-05-20T09:43:43.555Z,18.56
2019-05-20T09:46:15.501Z,18.49
2019-05-20T09:48:47.373Z,18.28
2019-05-20T09:51:19.322Z,17.66
2019-05-20T09:53:51.171Z,17.69
2019-05-20T09:56:24.053Z,17.82
2019-05-20T09:58:56.050Z,17.82
2019-05-20T10:01:28.027Z,17.88
2019-05-20T10:03:59.511Z,18.35
2019-05-20T10:06:31.305Z,18.11
2019-05-20T10:09:03.276Z,17.85
2019-05-20T10:11:55.744Z,17.96
2019-05-20T10:14:28.712Z,17.96
2019-05-20T10:17:00.804Z,18.34
2019-05-20T10:19:32.527Z,18.53
2019-05-20T10:22:04.241Z,18.53
2019-05-20T10:24:37.128Z,18.80
2019-05-20T10:27:11.647Z,18.80
2019-05-20T10:29:43.212Z,18.23
2019-05-20T10:32:14.820Z,18.67
2019-05-20T10:34:46.494Z,18.22
2019-05-20T10:37:17.901Z,18.66
2019-05-20T10:39:49.601Z,18.58
2019-05-20T10:42:21.043Z,18.44
2019-05-20T10:44:53.691Z,18.44
2019-05-20T10:47:25.614Z,18.56
2019-05-20T10:49:57.765Z,18.54
2019-05-20T10:52:30.332Z,18.69
2019-05-20T10:55:02.111Z,18.83
2019-05-20T10:57:33.857Z,18.59
2019-05-20T11:00:06.421Z,18.50
2019-05-20T11:02:41.357Z,19.35
2019-05-20T11:05:13.709Z,19.35
2019-05-20T11:07:45.198Z,19.36
2019-05-20T11:10:18.676Z,19.36
2019-05-20T11:12:51.351Z,19.02
2019-05-20T11:15:24.109Z,18.22
2019-05-20T11:17:56.768Z,18.67
2019-05-20T11:20:29.624Z,18.42
2019-05-20T11:23:02.648Z,18.69
2019-05-20T11:25:35.408Z,18.63
2019-05-20T11:28:11.801Z,18.28
2019-05-20T11:30:42.822Z,18.16
2019-05-20T11:33:15.657Z,18.90
2019-05-20T11:35:48.190Z,18.86
2019-05-20T11:38:20.750Z,18.67
2019-05-20T11:40:53.443Z,19.36
2019-05-20T11:43:25.921Z,18.98
2019-05-20T11:45:58.614Z,18.87
2019-05-20T11:48:30.967Z,18.87
2019-05-20T11:51:03.584Z,18.39
2019-05-20T11:53:35.821Z,18.39
2019-05-20T11:56:11.916Z,18.35
2019-05-20T11:58:43.310Z,18.69
2019-05-20T12:01:17.068Z,18.69
2019-05-20T12:03:49.647Z,19.11
2019-05-20T12:06:22.837Z,19.56
2019-05-20T12:08:55.139Z,19.10
2019-05-20T12:11:28.051Z,18.93
2019-05-20T12:14:00.257Z,19.20
2019-05-20T12:16:33.117Z,18.90
2019-05-20T12:19:06.791Z,19.23
2019-05-20T12:21:39.596Z,19.36
2019-05-20T12:24:11.979Z,19.03
2019-05-20T12:26:44.031Z,18.94
2019-05-20T12:29:16.106Z,18.86
2019-05-20T12:31:48.415Z,18.85
2019-05-20T12:34:20.621Z,18.89
2019-05-20T12:36:52.582Z,18.81
2019-05-20T12:39:24.597Z,18.68
2019-05-20T12:41:57.135Z,18.85
2019-05-20T12:44:28.838Z,18.98
2019-05-20T12:47:00.694Z,18.98
2019-05-20T12:49:33.453Z,18.89
2019-05-20T12:52:06.089Z,19.20
2019-05-20T12:54:38.247Z,19.54
2019-05-20T12:57:12.834Z,19.54
2019-05-20T12:59:44.896Z,19.96
2019-05-20T13:02:17.589Z,20.03
2019-05-20T13:04:49.731Z,20.10
2019-05-20T13:07:21.767Z,20.24
2019-05-20T13:09:53.844Z,20.24
2019-05-20T13:12:26.000Z,20.30
2019-05-20T13:14:58.585Z,20.71
2019-05-20T13:17:30.665Z,20.39
2019-05-20T13:20:03.318Z,20.32
2019-05-20T13:22:35.811Z,20.57
2019-05-20T13:25:07.854Z,20.64
2019-05-20T13:27:40.055Z,21.23
2019-05-20T13:30:13.598Z,21.23
2019-05-20T13:32:45.739Z,22.14
2019-05-20T13:35:18.751Z,22.32
2019-05-20T13:37:50.867Z,22.50
2019-05-20T13:40:23.274Z,22.22
2019-05-20T13:42:55.406Z,22.22
2019-05-20T13:45:27.828Z,22.90
2019-05-20T13:47:59.999Z,22.73
2019-05-20T13:50:31.962Z,22.99
2019-05-20T13:53:04.239Z,23.17
2019-05-20T13:55:37.019Z,23.07
2019-05-20T13:58:11.913Z,23.25
2019-05-20T14:00:44.435Z,23.60
2019-05-20T14:03:16.890Z,23.71
2019-05-20T14:05:53.599Z,23.73
2019-05-20T14:08:25.985Z,23.83
2019-05-20T14:11:04.272Z,23.95
2019-05-20T14:13:31.475Z,24.20
2019-05-20T14:16:03.142Z,24.47
2019-05-20T14:18:35.459Z,24.98
2019-05-20T14:21:08.278Z,24.91
2019-05-20T14:23:39.927Z,25.23
2019-05-20T14:26:11.691Z,25.01
2019-05-20T14:28:43.159Z,24.80
2019-05-20T14:31:14.544Z,24.64
2019-05-20T14:33:46.613Z,24.64
2019-05-20T14:36:37.682Z,24.70
2019-05-20T14:38:51.857Z,24.52
2019-05-20T14:41:24.671Z,24.84
2019-05-20T14:43:57.513Z,25.05
2019-05-20T14:46:28.775Z,24.88
2019-05-20T14:49:02.533Z,24.83
2019-05-20T14:51:33.851Z,24.70
2019-05-20T14:54:06.452Z,24.84
2019-05-20T14:56:37.899Z,24.87
2019-05-20T14:59:09.427Z,24.87
2019-05-20T15:01:41.192Z,24.84
2019-05-20T15:04:12.640Z,24.68
2019-05-20T15:06:44.736Z,24.96
2019-05-20T15:09:16.293Z,25.12
2019-05-20T15:11:48.719Z,24.77
2019-05-20T15:14:21.050Z,25.00
2019-05-20T15:16:52.829Z,25.22
2019-05-20T15:19:24.403Z,25.72
2019-05-20T15:21:55.867Z,25.75
2019-05-20T15:24:27.445Z,25.97
2019-05-20T15:26:59.342Z,26.04
2019-05-20T15:29:30.715Z,26.49
2019-05-20T15:32:02.728Z,25.79
2019-05-20T15:34:34.438Z,26.20
2019-05-20T15:37:06.347Z,26.00
2019-05-20T15:39:37.708Z,26.24
2019-05-20T15:42:12.100Z,26.37
2019-05-20T15:44:43.858Z,26.44
2019-05-20T15:47:18.624Z,26.52
2019-05-20T15:49:48.251Z,26.16
2019-05-20T15:52:20.141Z,25.89
2019-05-20T15:54:52.079Z,25.80
2019-05-20T15:57:23.601Z,25.99
2019-05-20T15:59:55.544Z,26.16
2019-05-20T16:02:27.295Z,26.09
2019-05-20T16:04:58.948Z,25.75
2019-05-20T16:07:30.441Z,26.62
2019-05-20T16:10:01.807Z,26.36
2019-05-20T16:12:34.591Z,27.00
2019-05-20T16:15:06.532Z,26.24
2019-05-20T16:17:38.451Z,26.27
2019-05-20T16:20:10.375Z,26.27
2019-05-20T16:22:42.090Z,26.21
2019-05-20T16:25:14.331Z,26.48
2019-05-20T16:27:45.787Z,26.26
2019-05-20T16:30:17.593Z,26.80
2019-05-20T16:32:49.232Z,26.65
2019-05-20T16:35:20.937Z,26.65
2019-05-20T16:37:53.352Z,26.70
2019-05-20T16:40:25.068Z,26.88
2019-05-20T16:42:56.677Z,27.02
2019-05-20T16:45:28.453Z,27.80
2019-05-20T16:47:59.822Z,27.80
2019-05-20T16:50:31.238Z,27.86
2019-05-20T16:53:03.060Z,28.04
2019-05-20T16:55:34.631Z,28.04
2019-05-20T16:58:06.028Z,27.66
2019-05-20T17:00:37.397Z,27.66
2019-05-20T17:03:09.015Z,28.10
2019-05-20T17:05:40.524Z,28.10
2019-05-20T17:08:12.514Z,27.84
2019-05-20T17:10:44.082Z,27.62
2019-05-20T17:13:15.492Z,28.77
2019-05-20T17:15:47.413Z,28.25
2019-05-20T17:18:18.831Z,28.25
2019-05-20T17:20:50.241Z,28.55
2019-05-20T17:23:22.511Z,28.57
2019-05-20T17:25:54.066Z,28.57
2019-05-20T17:28:26.697Z,28.64
2019-05-20T17:30:58.518Z,28.48
2019-05-20T17:33:30.162Z,29.03
2019-05-20T17:36:01.670Z,29.06
2019-05-20T17:38:34.462Z,29.06
2019-05-20T17:41:05.936Z,29.13
2019-05-20T17:43:37.608Z,29.13
2019-05-20T17:46:12.307Z,29.34
2019-05-20T17:48:44.071Z,29.32
2019-05-20T17:51:15.685Z,29.34
2019-05-20T17:53:47.209Z,29.12
2019-05-20T17:56:18.583Z,29.59
2019-05-20T17:58:50.295Z,29.54
2019-05-20T18:01:21.780Z,29.54
2019-05-20T18:03:53.656Z,30.02
2019-05-20T18:06:24.908Z,29.99
2019-05-20T18:08:58.627Z,29.99
2019-05-20T18:11:30.389Z,29.78
2019-05-20T18:14:02.262Z,30.30
2019-05-20T18:16:34.185Z,30.24
2019-05-20T18:19:06.078Z,30.14
2019-05-20T18:21:37.593Z,30.14
2019-05-20T18:24:09.295Z,29.92
2019-05-20T18:26:41.039Z,29.92
2019-05-20T18:29:12.327Z,29.82
2019-05-20T18:31:44.162Z,30.00
2019-05-20T18:34:16.198Z,29.77
2019-05-20T18:36:47.681Z,29.77
2019-05-20T18:39:19.502Z,29.82
2019-05-20T18:41:51.201Z,30.48
2019-05-20T18:44:22.913Z,30.48
2019-05-20T18:46:54.680Z,30.36
2019-05-20T18:49:26.184Z,30.54
2019-05-20T18:51:57.599Z,30.71
2019-05-20T18:54:29.175Z,30.65
2019-05-20T18:57:00.951Z,30.83
2019-05-20T18:59:32.747Z,30.65
2019-05-20T19:02:05.814Z,30.65
2019-05-20T19:04:37.800Z,30.64
2019-05-20T19:07:09.373Z,30.75
2019-05-20T19:09:41.127Z,30.93
2019-05-20T19:12:16.004Z,30.93
2019-05-20T19:14:47.769Z,30.83
2019-05-20T19:17:19.331Z,30.92
2019-05-20T19:19:51.296Z,30.92
2019-05-20T19:22:23.033Z,31.54
2019-05-20T19:24:54.549Z,31.58
2019-05-20T19:27:26.187Z,31.74
2019-05-20T19:29:57.653Z,31.88
2019-05-20T19:32:29.456Z,32.07
2019-05-20T19:35:01.136Z,31.86
2019-05-20T19:37:32.853Z,31.86
2019-05-20T19:40:04.887Z,31.36
2019-05-20T19:42:38.179Z,31.49
2019-05-20T19:45:10.002Z,31.50
2019-05-20T19:47:41.677Z,31.75
2019-05-20T19:50:13.573Z,31.66
2019-05-20T19:52:45.212Z,31.64
2019-05-20T19:55:18.828Z,31.80
2019-05-20T19:57:49.831Z,31.78
2019-05-20T20:00:21.955Z,31.66
2019-05-20T20:02:53.833Z,31.93
2019-05-20T20:05:25.625Z,31.65
2019-05-20T20:07:56.942Z,31.70
2019-05-20T20:10:29.405Z,31.49
2019-05-20T20:13:00.785Z,31.14
2019-05-20T20:15:32.193Z,30.91
2019-05-20T20:18:03.939Z,30.67
2019-05-20T20:20:35.559Z,30.67
2019-05-20T20:23:07.276Z,30.67
2019-05-20T20:25:38.866Z,30.67
2019-05-20T20:28:11.881Z,30.65
2019-05-20T20:30:43.334Z,30.56
2019-05-20T20:33:15.117Z,30.41
2019-05-20T20:35:46.722Z,30.63
2019-05-20T20:38:18.443Z,30.52
2019-05-20T20:40:50.295Z,30.45
2019-05-20T20:43:21.849Z,30.45
2019-05-20T20:45:53.195Z,30.33
2019-05-20T20:48:24.585Z,30.62
2019-05-20T20:50:56.169Z,31.13
2019-05-20T20:53:27.938Z,30.81
2019-05-20T20:55:59.235Z,30.81
2019-05-20T20:58:31.628Z,31.16
2019-05-20T21:01:04.178Z,30.83
2019-05-20T21:03:35.698Z,30.83
2019-05-20T21:06:07.083Z,30.56
2019-05-20T21:08:39.762Z,30.78
2019-05-20T21:11:11.045Z,30.80
2019-05-20T21:13:42.623Z,30.88
2019-05-20T21:16:14.212Z,30.83
2019-05-20T21:18:45.708Z,30.83
2019-05-20T21:21:17.297Z,30.86
2019-05-20T21:23:48.967Z,31.21
2019-05-20T21:26:20.587Z,30.83
2019-05-20T21:28:52.224Z,30.29
2019-05-20T21:31:24.146Z,30.38
2019-05-20T21:33:55.681Z,30.57
2019-05-20T21:36:27.352Z,30.20
2019-05-20T21:38:58.693Z,30.36
2019-05-20T21:41:30.893Z,30.65
2019-05-20T21:44:02.876Z,30.65
2019-05-20T21:46:34.498Z,30.76
2019-05-20T21:49:06.125Z,31.06
2019-05-20T21:51:38.036Z,31.30
2019-05-20T21:54:09.485Z,31.20
2019-05-20T21:56:41.145Z,31.31
2019-05-20T21:59:12.558Z,31.31
2019-05-20T22:01:44.388Z,31.24
2019-05-20T22:04:16.269Z,31.36
2019-05-20T22:06:48.238Z,31.36
2019-05-20T22:09:19.980Z,31.47
2019-05-20T22:11:51.799Z,31.39
2019-05-20T22:14:23.627Z,31.42
2019-05-20T22:16:55.409Z,31.42
2019-05-20T22:19:26.623Z,31.48
2019-05-20T22:22:23.670Z,31.54
2019-05-20T22:24:55.393Z,31.38
2019-05-20T22:27:27.180Z,31.38
2019-05-20T22:29:58.948Z,31.37
2019-05-20T22:32:30.766Z,31.59
2019-05-20T22:35:02.780Z,31.88
2019-05-20T22:37:34.678Z,31.96
2019-05-20T22:40:06.341Z,31.78
2019-05-20T22:42:38.187Z,31.85
2019-05-20T22:45:09.911Z,31.74
2019-05-20T22:47:41.512Z,31.54
2019-05-20T22:50:13.398Z,31.77
2019-05-20T22:52:45.024Z,31.77
2019-05-20T22:55:19.270Z,31.85
2019-05-20T22:57:51.045Z,32.16
2019-05-20T23:00:22.581Z,32.38
2019-05-20T23:02:54.494Z,32.41
2019-05-20T23:05:25.904Z,32.29
2019-05-20T23:07:57.871Z,32.15
2019-05-20T23:10:29.803Z,32.79
2019-05-20T23:13:01.275Z,32.79
2019-05-20T23:15:32.557Z,32.34
2019-05-20T23:18:03.880Z,32.13
2019-05-20T23:20:36.595Z,32.24
2019-05-20T23:23:08.528Z,32.05
2019-05-20T23:25:40.151Z,32.26
2019-05-20T23:28:11.898Z,32.15
2019-05-20T23:30:43.568Z,32.70
2019-05-20T23:33:15.244Z,32.68
2019-05-20T23:35:46.878Z,33.38
2019-05-20T23:38:19.438Z,34.12
2019-05-20T23:40:51.945Z,34.12
2019-05-20T23:43:23.746Z,34.31
2019-05-20T23:45:55.067Z,34.56
2019-05-20T23:48:27.310Z,35.25
2019-05-20T23:50:58.912Z,35.68
2019-05-20T23:53:30.540Z,34.79
2019-05-20T23:56:02.074Z,35.01
2019-05-20T23:58:34.565Z,35.12
